Moose, WY

11:27 PM MDT on September 23, 2014 (GMT -0600)
Rexburg-Madison County | Change Station
CLOSE
Current Station
Airport
Location: Rexburg,
Elevation: 4859 ft
Nearby Weather Stations

Elev 4859 ft 43.83 °N, 111.81 °W | Updated 34 minutes ago

Clear
Clear
55 °F
Feels Like 55 °F
N
0
Wind Variable Wind from North

Today
High -- | Low -- °F
--% Chance of Precip.
Yesterday
High -- | Low -- °F
Precip. -- in
7:11 AM 7:18 PM
Waning Crescent, 0% visible
Pressure 30.08 in
Visibility 10.0 miles
Clouds Clear
Dew Point 51 °F
Humidity 86%
Rainfall 0.00 in
Snow Depth 0 in , 0 in , 0 in
UV 0 out of 12
Pollen 6.80 out of 12
Air Quality Not available.
Flu Activity Not available.
METAR KRXE 240453Z AUTO 00000KT 10SM CLR 13/11 A3016 RMK AO2 SLP185 T01280106

More Conditions Fewer Conditions

Pressure 30.08 in
Visibility 10.0 miles
Clouds Clear
Dew Point 51 °F
Humidity 86%
Rainfall 0.00 in
Snow Depth 0 in , 0 in , 0 in
UV 0 out of 12
Pollen 6.80 out of 12
Air Quality Not available.
Flu Activity Not available.
METAR KRXE 240453Z AUTO 00000KT 10SM CLR 13/11 A3016 RMK AO2 SLP185 T01280106

More Conditions Fewer Conditions

10-Day Weather Forecast

Almanac

Astronomy

Sep. 23, 2014 Rise Set
Actual Time 7:11 AM MDT 7:18 PM MDT
Civil Twilight 6:43 AM MDT 7:47 PM MDT
Nautical Twilight 6:09 AM MDT 8:21 PM MDT
Astronomical Twilight 5:34 AM MDT 8:55 PM MDT
Moon 6:39 AM MDT (9/23) 6:58 PM MDT (9/23)
Length of Visible Light 13h 04m
Length of Day
12h 06m
Tomorrow will be 2m 59s shorter.
Waning Crescent, 0% of the Moon is Illuminated
Sep 24
Waning Crescent
Sep 24
New
Oct 1
First Quarter
Oct 8
Full
Oct 15
Last Quarter

Yesterday's Extremes

State Highs State Lows

Community

WunderPhotos

Upload Photos

1,755,891 photos uploaded!

WunderBlogs® & News

Nearby

Snow Depth

Station Depth Elevation
Base Camp 0 in 7030 ft
Phillips Bench 0 in 8200 ft
East Rim Divide 0 in 7930 ft
Webber Springs 0 in 9250 ft
Whiskey Park 0 in 8950 ft

Earthquake Activity

City Distance Mag. Time & Date
No recent earthquake activity has been reported nearby.
Minimum magnitude displayed is 2.5.

Coastal Water Temperatures

Place Temperature
No Stations Reporting

Nearby Weather Stations